X  Lukk Metar værinformasjon om luftfart     ETAR Ramstein Air Base
Temperatur
57°F Temperatur
55°F Duggpunkt
94% Luftfuktighet



Vind
0 MPT
0 KM/T
0 M/S
0 KNP



Stille
N
Nåværende forhold

Tåke Tåke
Trykk 1015.24 (hPa) - 29.98 (inHg)
Sikt 5 (mil) - 8 (km)
Flyplass
Flyplass-kode ETAR

Plassering: Ramstein Air Base
Avstand: 25 (mi)

Metar:
ETAR 172255Z AUTO 00000KT 8000 BR CLR 14/13 A2998 RMK AO2 VIS 0800 RWY08 SLP154 T01360130 402250127

Tid: 18-06-2024 00:55 CEST